PAKT/KTN METAR and TAF weather

Enter ICAO airport designator
Station Type Date Time Source
PAKT METAR 2019/06/18 12:53 UTC NOAA

PAKT 181253Z AUTO 14007KT 10SM -RA OVC036 10/09 A3012 RMK RAB16E30B47 SLP199 P0000 T01000094 TSNO $ VIA AUTODIAL


Station Type Date Time Source
PAKT Decoded METAR 2019/06/18 12:53 UTC NOAA

KETCHIKAN INTERNATIONAL AIRPORT , AK, United States (PAKT) 55-21N 131-43W 25M
Jun 18, 2019 - 08:53 AM EDT / 2019.06.18 1253 UTC
Wind: from the SE (140 degrees) at 8 MPH (7 KT):0
Visibility: 10 mile(s):0
Sky conditions: overcast
Weather: light rain
Precipitation last hour: A trace
Temperature: 50.0 F (10.0 C)
Dew Point: 48.9 F (9.4 C)
Relative Humidity: 96%
Pressure (altimeter): 30.12 in. Hg (1019 hPa)
ob: PAKT 181253Z AUTO 14007KT 10SM -RA OVC036 10/09 A3012 RMK RAB16E30B47 SLP199 P0000 T01000094 TSNO VIA AUTODIAL
cycle: 13

Station Type Date Time Source
PAKT TAF 2019/06/18 12:33 UTC NOAA

TAF PAKT 181131Z 1812/1912 13006KT P6SM -SHRA SCT025 OVC050
TEMPO 1812/1814 6SM -SHRA BR SCT015 OVC025
FM181400 13009KT 6SM -SHRA BR BKN015 OVC025
FM190200 13006KT P6SM VCSH SCT015 OVC025
AMD LTD TO CLD VIS AND WIND 1812/1815

Example: see airport list